Time;durP1;ratioP1;P1;durP2;ratioP2;P2;SDS_P1;SDS_P2;PMS_P1;PMS_P2;Temp;Humidity;BMP_temperature;BMP_pressure;BME280_temperature;BME280_humidity;BME280_pressure;Samples;Min_cycle;Max_cycle;Signal;HPM_P1;HPM_P2
2023/08/07 00:00:46;;;;;;;9.52;1.67;;;;;;;13.20;89.65;100267.97;5004949;28;20569;-71
2023/08/07 00:03:49;;;;;;;8.88;2.10;;;;;;;13.11;88.40;100264.19;5003196;28;20057;-71
2023/08/07 00:06:52;;;;;;;;;;;;;;;13.05;88.71;100264.63;5001520;28;20512;-72
2023/08/07 00:09:55;;;;;;;7.68;1.85;;;;;;;13.09;89.37;100258.19;5001701;28;19920;-71
2023/08/07 00:12:59;;;;;;;10.55;2.15;;;;;;;13.12;88.91;100265.88;5002786;28;20104;-71
2023/08/07 00:16:02;;;;;;;;;;;;;;;13.12;89.01;100263.25;5003881;28;20046;-71
2023/08/07 00:19:05;;;;;;;;;;;;;;;13.14;88.98;100263.97;5004739;28;19932;-71
2023/08/07 00:22:08;;;;;;;10.95;1.90;;;;;;;13.13;87.63;100259.66;5004632;28;19979;-72
2023/08/07 00:25:11;;;;;;;8.70;1.83;;;;;;;13.06;87.90;100271.53;5000550;28;20096;-72
2023/08/07 00:28:14;;;;;;;;;;;;;;;13.02;88.39;100275.31;5001881;28;20073;-72
2023/08/07 00:31:18;;;;;;;6.47;1.67;;;;;;;12.90;88.55;100276.94;5003902;28;20329;-72
2023/08/07 00:34:21;;;;;;;8.20;1.77;;;;;;;12.89;88.32;100274.41;5003278;28;20080;-72
2023/08/07 00:37:26;;;;;;;8.77;1.95;;;;;;;12.92;89.55;100279.47;5003880;28;20087;-72
2023/08/07 00:40:36;;;;;;;10.45;1.98;;;;;;;12.91;89.19;100276.00;5004303;28;20037;-71
2023/08/07 00:43:39;;;;;;;10.25;2.00;;;;;;;12.92;89.88;100274.22;5001438;28;20121;-72
2023/08/07 00:46:43;;;;;;;9.27;1.73;;;;;;;12.83;88.61;100275.69;5003616;28;20100;-72
2023/08/07 00:49:48;;;;;;;8.95;1.92;;;;;;;12.83;88.79;100275.69;5003194;28;20220;-71
2023/08/07 00:52:51;;;;;;;8.35;2.20;;;;;;;12.87;89.61;100274.53;4999694;28;20562;-71
2023/08/07 00:55:54;;;;;;;7.78;1.98;;;;;;;12.93;89.08;100271.50;4999898;28;20513;-71
2023/08/07 00:58:58;;;;;;;12.35;2.70;;;;;;;12.98;89.29;100263.31;5001868;28;20053;-71
2023/08/07 01:02:02;;;;;;;10.88;1.98;;;;;;;12.92;87.98;100272.47;5002622;28;20097;-72
2023/08/07 01:15:32;;;;;;;10.15;2.47;;;;;;;12.99;86.73;100278.97;5001811;28;20059;-71
2023/08/07 01:18:37;;;;;;;6.50;2.08;;;;;;;12.98;87.48;100284.31;5000101;28;20057;-71
2023/08/07 01:21:48;;;;;;;10.73;2.72;;;;;;;12.96;87.82;100281.81;5001240;28;20104;-71
2023/08/07 01:24:51;;;;;;;13.00;2.83;;;;;;;12.87;87.76;100285.03;4999327;28;20173;-71
2023/08/07 01:28:30;;;;;;;12.93;3.35;;;;;;;12.82;88.77;100294.97;4999292;28;20046;-71
2023/08/07 01:31:36;;;;;;;9.13;1.85;;;;;;;12.88;89.49;100291.94;4999691;28;20120;-71
2023/08/07 01:34:41;;;;;;;10.48;2.50;;;;;;;12.82;89.51;100291.50;5000942;28;20179;-71
2023/08/07 01:37:58;;;;;;;8.77;2.00;;;;;;;12.85;90.08;100296.56;5001696;28;20040;-71
2023/08/07 01:41:03;;;;;;;11.48;1.88;;;;;;;12.76;89.67;100296.25;5002032;28;20054;-71
2023/08/07 01:44:08;;;;;;;7.65;1.90;;;;;;;12.74;90.32;100292.84;5002985;28;20080;-71
2023/08/07 01:47:11;;;;;;;10.88;2.08;;;;;;;12.74;91.02;100303.34;4998781;28;20111;-71
2023/08/07 01:50:14;;;;;;;6.75;2.10;;;;;;;12.74;90.86;100298.09;4998773;28;20503;-71
2023/08/07 01:53:17;;;;;;;10.73;2.72;;;;;;;12.72;91.35;100294.72;5000784;28;20443;-71
2023/08/07 01:56:21;;;;;;;7.90;2.20;;;;;;;12.79;90.86;100296.03;5000521;28;20096;-71
2023/08/07 01:59:24;;;;;;;8.07;2.28;;;;;;;12.77;90.22;100295.28;5002167;28;20100;-72
2023/08/07 02:02:28;;;;;;;9.50;2.30;;;;;;;12.77;91.09;100302.31;5001836;28;20040;-71
2023/08/07 02:05:31;;;;;;;7.72;2.00;;;;;;;12.77;91.67;100299.69;4998493;28;20056;-71
2023/08/07 02:08:34;;;;;;;;;;;;;;;12.72;91.01;100299.97;4998883;28;20088;-72
2023/08/07 02:11:37;;;;;;;6.07;2.00;;;;;;;12.75;92.32;100305.03;5000055;28;19950;-72
2023/08/07 02:14:41;;;;;;;7.05;1.65;;;;;;;12.74;91.53;100292.84;5000434;28;20658;-71
2023/08/07 02:17:44;;;;;;;9.80;2.55;;;;;;;12.65;91.69;100309.19;5001550;28;20061;-72
2023/08/07 02:20:48;;;;;;;6.28;1.83;;;;;;;12.63;92.74;100313.69;5002431;28;20091;-71
2023/08/07 02:23:51;;;;;;;;;;;;;;;12.65;92.78;100313.59;4993207;28;20523;-71
2023/08/07 02:26:54;;;;;;;6.15;1.90;;;;;;;12.63;92.67;100318.94;4992118;28;19968;-71
2023/08/07 02:29:57;;;;;;;;;;;;;;;12.62;93.49;100324.28;4993077;28;20112;-72
2023/08/07 02:33:00;;;;;;;7.55;1.73;;;;;;;12.58;93.53;100318.41;4993365;28;20021;-71
2023/08/07 02:36:04;;;;;;;;;;;;;;;12.63;94.18;100311.06;4996955;28;20053;-72
2023/08/07 02:39:08;;;;;;;5.32;1.65;;;;;;;12.63;94.37;100321.56;4995753;28;19924;-72
2023/08/07 02:42:11;;;;;;;5.85;1.58;;;;;;;12.63;93.15;100326.78;4996573;28;20093;-71
2023/08/07 02:45:14;;;;;;;;;;;;;;;12.58;93.58;100323.66;4996921;28;20045;-71
2023/08/07 02:48:17;;;;;;;5.80;1.90;;;;;;;12.64;92.98;100320.63;4996552;28;20045;-72
2023/08/07 02:51:21;;;;;;;9.02;2.30;;;;;;;12.68;92.50;100316.88;4996533;28;20054;-71
2023/08/07 02:54:24;;;;;;;8.30;1.92;;;;;;;12.77;93.09;100316.28;4996205;28;20124;-72
2023/08/07 02:57:27;;;;;;;;;;;;;;;12.72;91.45;100315.72;4996614;28;20550;-71
2023/08/07 03:00:30;;;;;;;5.88;1.90;;;;;;;12.80;91.80;100317.88;4996147;28;19920;-71
2023/08/07 03:03:34;;;;;;;8.07;1.85;;;;;;;12.83;90.97;100316.78;4996264;28;20089;-72
2023/08/07 03:06:37;;;;;;;10.38;2.35;;;;;;;12.81;91.33;100314.28;4995123;28;20399;-71
2023/08/07 03:09:41;;;;;;;6.00;1.80;;;;;;;12.78;90.98;100317.09;4995828;28;20100;-71
2023/08/07 03:12:44;;;;;;;11.13;2.45;;;;;;;12.82;90.68;100320.38;4996147;28;20057;-71
2023/08/07 03:15:49;;;;;;;6.65;2.30;;;;;;;12.79;90.30;100308.28;4995946;28;20452;-71
2023/08/07 03:18:52;;;;;;;8.13;2.72;;;;;;;12.89;91.17;100321.66;4995613;28;20073;-71
2023/08/07 03:21:55;;;;;;;;;;;;;;;12.90;90.19;100318.94;4995379;28;20049;-71
2023/08/07 03:24:59;;;;;;;8.27;2.05;;;;;;;12.88;89.69;100323.44;4994890;28;19920;-71
2023/08/07 03:28:03;;;;;;;11.93;2.75;;;;;;;12.83;88.58;100316.78;4995069;28;20049;-71
2023/08/07 03:31:06;;;;;;;5.93;2.30;;;;;;;12.75;88.51;100323.38;4994910;28;20061;-71
2023/08/07 03:34:12;;;;;;;7.63;2.25;;;;;;;12.70;88.89;100322.00;4994694;28;20077;-71
2023/08/07 03:37:15;;;;;;;6.57;1.98;;;;;;;12.73;88.30;100329.66;4995135;28;20141;-72
2023/08/07 03:40:18;;;;;;;6.00;2.13;;;;;;;12.82;89.46;100336.13;4995000;28;20185;-70
2023/08/07 03:43:22;;;;;;;4.88;1.40;;;;;;;12.77;88.58;100342.50;4995463;28;20089;-70
2023/08/07 03:46:25;;;;;;;9.57;2.85;;;;;;;12.82;89.34;100331.69;4994059;28;20403;-70
2023/08/07 03:49:28;;;;;;;;;;;;;;;12.75;89.35;100343.53;4994873;28;20049;-70
2023/08/07 03:52:31;;;;;;;5.80;1.70;;;;;;;12.79;90.42;100334.53;4994645;28;19936;-69
2023/08/07 03:55:35;;;;;;;9.10;1.73;;;;;;;12.89;90.18;100347.88;4994365;28;20109;-70
2023/08/07 03:58:38;;;;;;;;;;;;;;;12.76;89.58;100348.72;4994498;28;20054;-70
2023/08/07 04:01:42;;;;;;;7.15;1.80;;;;;;;12.73;89.73;100359.41;4994281;28;20283;-70
2023/08/07 04:04:46;;;;;;;6.95;2.22;;;;;;;12.67;90.15;100351.91;4994437;28;20057;-70
2023/08/07 04:07:49;;;;;;;7.85;2.30;;;;;;;12.61;90.24;100351.47;4994412;28;20041;-70
2023/08/07 04:11:00;;;;;;;6.07;1.73;;;;;;;12.64;90.24;100349.47;4995002;28;20494;-70
2023/08/07 04:14:04;;;;;;;8.63;2.15;;;;;;;12.61;90.51;100348.84;4994143;28;20161;-71
2023/08/07 04:17:07;;;;;;;9.02;2.75;;;;;;;12.57;90.57;100346.41;4994653;28;20084;-72
2023/08/07 04:20:10;;;;;;;6.20;2.05;;;;;;;12.63;90.69;100341.69;4994851;28;20060;-72
2023/08/07 04:23:15;;;;;;;5.82;2.20;;;;;;;12.66;90.71;100347.59;4994578;28;20046;-72
2023/08/07 04:26:18;;;;;;;;;;;;;;;12.64;90.63;100348.66;4993966;28;20069;-69
2023/08/07 04:29:21;;;;;;;7.70;1.97;;;;;;;12.70;90.47;100350.84;4993075;28;19984;-71
2023/08/07 04:32:25;;;;;;;8.07;2.00;;;;;;;12.68;89.79;100350.97;4994208;28;20327;-70
2023/08/07 04:35:28;;;;;;;;;;;;;;;12.71;90.15;100349.94;4994039;28;20460;-70
2023/08/07 04:38:32;;;;;;;8.40;2.08;;;;;;;12.76;91.25;100360.97;4993498;28;19925;-71
2023/08/07 04:41:35;;;;;;;9.13;2.40;;;;;;;12.73;89.94;100353.28;4993490;28;20053;-71
2023/08/07 04:44:38;;;;;;;6.50;2.00;;;;;;;12.70;89.18;100363.97;4993562;28;20125;-71
2023/08/07 04:47:42;;;;;;;9.00;2.47;;;;;;;12.69;89.96;100357.06;4993488;28;20451;-71
2023/08/07 04:50:45;;;;;;;8.13;2.60;;;;;;;12.72;89.86;100362.09;4993358;28;20053;-71
2023/08/07 04:53:50;;;;;;;6.82;2.28;;;;;;;12.72;89.17;100360.31;4993126;28;20045;-71
2023/08/07 04:56:54;;;;;;;8.02;2.03;;;;;;;12.66;89.72;100368.56;4992317;28;20093;-71
2023/08/07 04:59:56;;;;;;;8.15;2.35;;;;;;;12.63;90.20;100376.63;4993100;28;20049;-71
2023/08/07 05:03:01;;;;;;;11.02;2.80;;;;;;;12.62;90.07;100382.00;4992543;28;20513;-71
2023/08/07 05:06:05;;;;;;;5.57;2.17;;;;;;;12.60;90.90;100379.44;4991953;28;20072;-71
2023/08/07 05:09:09;;;;;;;8.15;2.72;;;;;;;12.62;91.20;100382.00;4991355;28;20065;-69
2023/08/07 05:12:13;;;;;;;8.32;2.50;;;;;;;12.60;90.98;100386.47;4990377;28;20045;-69
2023/08/07 05:15:17;;;;;;;11.10;2.28;;;;;;;12.66;91.86;100388.72;4992011;28;20431;-70
2023/08/07 05:18:20;;;;;;;9.43;2.90;;;;;;;12.64;91.40;100391.47;4991854;28;20170;-70
2023/08/07 05:21:24;;;;;;;14.05;3.67;;;;;;;12.64;91.83;100396.69;4992846;28;20069;-70
2023/08/07 05:24:27;;;;;;;7.45;2.83;;;;;;;12.66;92.34;100405.31;4992669;28;20073;-70
2023/08/07 05:27:30;;;;;;;;;;;;;;;12.62;92.47;100400.34;4993183;28;20065;-70
2023/08/07 05:30:33;;;;;;;8.10;2.55;;;;;;;12.62;93.03;100397.72;4992637;28;19937;-69
2023/08/07 05:33:36;;;;;;;7.13;2.20;;;;;;;12.65;92.90;100402.78;4992617;28;20121;-70
2023/08/07 05:36:41;;;;;;;5.78;1.85;;;;;;;12.57;93.08;100398.88;4992423;28;20088;-70
2023/08/07 05:39:44;;;;;;;4.32;1.60;;;;;;;12.48;93.24;100407.31;4992358;28;20041;-70
2023/08/07 05:42:47;;;;;;;7.93;2.13;;;;;;;12.54;93.90;100409.56;4992079;28;20522;-70
2023/08/07 05:45:51;;;;;;;9.75;2.38;;;;;;;12.56;92.27;100399.78;4991142;28;20441;-70
2023/08/07 05:48:54;;;;;;;7.43;2.42;;;;;;;12.56;92.62;100409.44;4991343;28;20076;-70
2023/08/07 05:51:57;;;;;;;7.25;2.17;;;;;;;12.49;92.07;100402.91;4991672;28;20077;-70
2023/08/07 05:55:01;;;;;;;9.35;3.25;;;;;;;12.43;92.56;100404.13;4991761;28;20058;-70
2023/08/07 05:58:04;;;;;;;6.68;2.20;;;;;;;12.52;93.74;100413.19;4991441;28;20586;-71
2023/08/07 06:01:08;;;;;;;6.97;2.22;;;;;;;12.60;93.15;100425.81;4992215;28;20132;-71
2023/08/07 06:04:11;;;;;;;7.38;2.00;;;;;;;12.59;93.30;100425.00;4992282;28;20187;-73
2023/08/07 06:07:14;;;;;;;6.95;1.98;;;;;;;12.61;92.93;100417.03;4992168;28;20173;-70
2023/08/07 06:10:18;;;;;;;6.80;1.90;;;;;;;12.65;92.83;100414.13;4992355;28;20100;-74
2023/08/07 06:13:21;;;;;;;8.70;2.30;;;;;;;12.65;92.80;100416.75;4992224;28;20061;-71
2023/08/07 06:16:24;;;;;;;;;;;;;;;12.64;93.62;100415.06;4992538;28;20414;-73
2023/08/07 06:19:28;;;;;;;6.55;2.08;;;;;;;12.78;93.57;100412.41;4991358;28;19928;-68
2023/08/07 06:22:32;;;;;;;6.47;2.22;;;;;;;12.76;91.96;100411.69;4992128;28;20049;-71
2023/08/07 06:25:35;;;;;;;9.45;3.13;;;;;;;12.79;91.40;100416.72;4992035;28;20065;-72
2023/08/07 06:28:39;;;;;;;8.52;2.42;;;;;;;12.88;91.91;100422.31;4981096;28;20038;-71
2023/08/07 06:31:43;;;;;;;8.07;2.55;;;;;;;12.99;91.67;100418.06;4971693;28;20201;-71
2023/08/07 06:34:46;;;;;;;6.28;2.33;;;;;;;12.93;89.17;100417.63;4972578;28;20053;-70
2023/08/07 06:37:50;;;;;;;8.27;2.60;;;;;;;12.93;88.74;100417.63;4972617;28;20060;-70
2023/08/07 06:40:53;;;;;;;6.75;2.30;;;;;;;12.95;89.59;100420.97;4972452;28;20093;-70
2023/08/07 06:43:56;;;;;;;;;;;;;;;13.05;89.94;100416.84;4972999;28;20045;-69
2023/08/07 06:46:59;;;;;;;8.57;2.55;;;;;;;13.22;89.85;100419.22;4973169;28;20000;-69
2023/08/07 06:50:02;;;;;;;;;;;;;;;13.30;90.31;100425.78;4973727;28;20130;-72
2023/08/07 06:53:06;;;;;;;11.52;3.10;;;;;;;13.29;87.12;100421.47;4983887;28;19967;-79
2023/08/07 06:56:09;;;;;;;10.25;2.55;;;;;;;13.34;87.79;100420.25;5012402;28;20048;-72
2023/08/07 06:59:13;;;;;;;8.52;2.92;;;;;;;13.42;87.05;100424.97;5012076;28;20041;-72
2023/08/07 07:02:16;;;;;;;;;;;;;;;13.47;85.45;100428.16;5013208;28;20052;-72
2023/08/07 07:05:19;;;;;;;8.70;2.35;;;;;;;13.57;85.41;100441.53;5011982;28;19924;-72
2023/08/07 07:08:23;;;;;;;7.45;2.15;;;;;;;13.68;85.28;100437.22;5011021;28;20041;-73
2023/08/07 07:11:26;;;;;;;10.52;2.78;;;;;;;13.66;82.52;100441.75;5011743;28;20509;-70
2023/08/07 07:14:29;;;;;;;7.70;2.67;;;;;;;13.74;83.48;100443.84;5011559;28;20057;-70
2023/08/07 07:17:33;;;;;;;9.57;2.20;;;;;;;13.77;83.36;100443.66;5011407;28;20048;-71
2023/08/07 07:20:36;;;;;;;10.73;3.03;;;;;;;13.84;84.06;100451.97;5013015;28;20125;-71
2023/08/07 07:23:39;;;;;;;8.98;2.72;;;;;;;13.84;82.43;100458.06;5015074;28;20107;-70
2023/08/07 07:26:43;;;;;;;9.98;2.35;;;;;;;13.87;82.31;100463.13;5014789;28;20120;-71
2023/08/07 07:29:46;;;;;;;5.85;2.17;;;;;;;13.85;82.52;100461.56;5011382;28;20511;-71
2023/08/07 07:32:50;;;;;;;8.95;2.47;;;;;;;13.82;80.79;100461.75;5014544;28;20073;-71
2023/08/07 07:35:52;;;;;;;;;;;;;;;13.74;81.11;100483.28;5014592;28;20040;-71
2023/08/07 07:38:55;;;;;;;8.95;2.35;;;;;;;13.72;81.16;100472.88;5014137;28;19928;-71
2023/08/07 07:41:59;;;;;;;7.05;2.28;;;;;;;13.64;80.15;100477.78;5014404;28;20104;-71
2023/08/07 07:45:02;;;;;;;10.18;3.15;;;;;;;13.58;80.80;100488.69;5014679;28;20100;-71
2023/08/07 07:48:07;;;;;;;7.32;2.55;;;;;;;13.61;81.27;100485.88;5014526;28;20060;-72
2023/08/07 07:51:10;;;;;;;9.15;2.10;;;;;;;13.61;81.90;100493.75;5014839;28;20045;-73
2023/08/07 07:54:14;;;;;;;8.95;3.03;;;;;;;13.55;82.73;100494.16;5014959;28;20061;-71
2023/08/07 07:57:17;;;;;;;9.38;2.75;;;;;;;13.53;82.23;100501.31;5014859;28;20125;-72
2023/08/07 08:00:22;;;;;;;8.13;2.67;;;;;;;13.40;82.71;100498.63;5014306;28;20513;-71
2023/08/07 08:03:25;;;;;;;9.55;2.85;;;;;;;13.35;83.79;100508.56;5014507;28;20078;-70
2023/08/07 08:06:30;;;;;;;8.48;2.95;;;;;;;13.31;83.88;100508.88;5014355;28;20044;-71
2023/08/07 08:09:34;;;;;;;6.65;1.98;;;;;;;13.33;84.06;100526.19;5013674;28;20118;-70
2023/08/07 08:12:37;;;;;;;7.57;2.42;;;;;;;13.19;84.59;100520.97;5014101;28;20045;-71
2023/08/07 08:15:40;;;;;;;;;;;;;;;13.13;85.46;100524.81;5014133;28;20044;-72
2023/08/07 08:18:43;;;;;;;8.18;2.75;;;;;;;13.06;85.96;100538.44;5013757;28;19968;-71
2023/08/07 08:21:46;;;;;;;9.40;2.60;;;;;;;13.09;86.69;100541.72;5013806;28;20507;-71
2023/08/07 08:24:50;;;;;;;8.48;2.58;;;;;;;13.13;86.82;100545.81;5013839;28;20045;-71
2023/08/07 08:27:53;;;;;;;10.68;2.60;;;;;;;13.14;87.49;100542.25;5014085;28;20048;-72
2023/08/07 08:30:56;;;;;;;6.38;2.53;;;;;;;13.12;86.70;100551.19;5012864;28;20537;-73
2023/08/07 08:34:00;;;;;;;5.63;1.98;;;;;;;13.10;87.77;100551.25;5013130;28;20048;-72
2023/08/07 08:37:05;;;;;;;;;;;;;;;13.06;87.72;100559.44;5013776;28;20529;-68
2023/08/07 08:40:16;;;;;;;10.30;2.20;;;;;;;13.07;88.02;100555.84;5013425;28;19924;-68
2023/08/07 08:43:21;;;;;;;9.43;2.45;;;;;;;12.84;88.28;100571.25;5012702;28;20045;-68
2023/08/07 08:46:27;;;;;;;5.93;1.98;;;;;;;12.85;89.03;100574.72;5013200;28;20402;-68
2023/08/07 08:49:35;;;;;;;6.13;2.00;;;;;;;12.82;89.47;100574.88;5013004;28;20087;-70
2023/08/07 08:52:44;;;;;;;7.32;2.40;;;;;;;12.85;89.70;100582.56;5013488;28;20406;-71
2023/08/07 08:55:48;;;;;;;6.53;2.17;;;;;;;12.84;89.51;100591.41;5012870;28;20105;-72
2023/08/07 08:58:52;;;;;;;8.30;2.00;;;;;;;12.88;89.35;100587.63;5012943;28;20092;-72
2023/08/07 09:01:56;;;;;;;5.38;1.90;;;;;;;13.02;90.94;100585.88;5001902;28;20516;-72
2023/08/07 09:05:00;;;;;;;6.05;1.60;;;;;;;13.00;89.70;100613.97;5003427;28;20144;-72
2023/08/07 09:08:05;;;;;;;;;;;;;;;12.83;90.00;100592.31;5003820;28;20033;-72
2023/08/07 09:11:08;;;;;;;55.53;46.67;;;;;;;12.80;90.56;100591.59;4999718;28;19954;-71
2023/08/07 09:14:16;;;;;;;5.78;4.10;;;;;;;12.83;91.02;100602.81;4999998;28;20408;-72
2023/08/07 09:20:29;;;;;;;4.88;1.83;;;;;;;12.87;93.03;100613.03;5424180;23;20513;-71
2023/08/07 09:23:32;;;;;;;4.60;1.65;;;;;;;12.88;92.55;100616.50;4993463;28;20725;-71
2023/08/07 09:26:37;;;;;;;3.67;1.45;;;;;;;13.02;93.47;100627.03;4991810;28;20041;-71
2023/08/07 09:29:40;;;;;;;3.92;1.55;;;;;;;13.07;94.24;100619.69;4993167;28;20057;-71
2023/08/07 09:32:47;;;;;;;4.65;1.63;;;;;;;13.17;93.90;100620.81;4992939;28;20065;-71
2023/08/07 09:35:50;;;;;;;6.07;1.63;;;;;;;13.19;91.88;100623.38;4993189;28;20077;-71
2023/08/07 09:38:53;;;;;;;6.63;2.30;;;;;;;13.29;93.01;100616.63;4993000;28;20065;-71
2023/08/07 09:41:57;;;;;;;11.00;1.73;;;;;;;13.34;92.33;100617.19;4992935;28;20046;-71
2023/08/07 09:45:00;;;;;;;;;;;;;;;13.37;90.36;100618.78;4992969;28;20077;-71
2023/08/07 09:48:08;;;;;;;4.65;1.73;;;;;;;13.46;90.94;100623.44;4991514;28;19924;-70
2023/08/07 09:51:12;;;;;;;8.27;1.95;;;;;;;13.42;89.82;100624.59;4979260;28;20041;-70
2023/08/07 09:54:15;;;;;;;5.97;1.70;;;;;;;13.58;90.54;100620.06;4973393;28;20422;-72
2023/08/07 09:57:19;;;;;;;7.32;2.22;;;;;;;13.63;88.41;100619.78;4973456;28;20050;-72
2023/08/07 10:04:35;;;;;;;7.78;1.98;;;;;;;13.67;87.31;100632.63;4972762;28;20123;-73
2023/08/07 10:07:40;;;;;;;8.30;2.00;;;;;;;13.73;86.91;100653.25;4972718;28;20046;-71
2023/08/07 10:11:10;;;;;;;6.80;1.90;;;;;;;13.85;87.91;100648.16;4972801;28;20050;-69
2023/08/07 10:15:03;;;;;;;4.82;1.95;;;;;;;13.79;86.03;100651.19;4971675;28;20066;-70
2023/08/07 10:18:07;;;;;;;6.35;1.70;;;;;;;13.95;86.41;100638.75;4972576;28;20058;-69
2023/08/07 10:21:11;;;;;;;8.98;2.33;;;;;;;14.06;85.12;100641.50;4972538;28;20077;-70
2023/08/07 10:24:16;;;;;;;5.72;2.17;;;;;;;14.14;84.58;100641.88;4973132;28;20045;-69
2023/08/07 10:59:14;;;;;;;5.20;2.03;;;;;;;15.12;77.40;100658.13;5130117;27;20700;-70
2023/08/07 11:02:27;;;;;;;8.15;2.00;;;;;;;15.35;79.35;100657.38;5130507;27;20057;-69
2023/08/07 11:05:32;;;;;;;10.15;2.50;;;;;;;15.40;76.29;100662.31;5129655;27;20046;-70
2023/08/07 11:08:37;;;;;;;5.63;2.15;;;;;;;15.38;76.01;100666.88;5129759;27;20046;-71
2023/08/07 11:11:43;;;;;;;7.53;2.40;;;;;;;15.35;75.82;100670.56;5129877;27;20081;-71
2023/08/07 11:14:47;;;;;;;9.10;2.22;;;;;;;15.32;75.23;100677.84;5130020;27;20104;-71
2023/08/07 11:17:50;;;;;;;7.50;2.60;;;;;;;15.42;77.35;100676.25;5129653;27;20153;-70
2023/08/07 11:20:56;;;;;;;8.00;3.72;;;;;;;15.44;75.25;100679.59;5129828;27;20046;-70
2023/08/07 11:23:59;;;;;;;5.47;2.05;;;;;;;15.50;75.53;100691.50;5129239;27;20050;-69
2023/08/07 11:27:02;;;;;;;6.32;2.17;;;;;;;15.55;76.13;100678.84;5129388;27;20038;-68
2023/08/07 11:30:10;;;;;;;9.43;2.40;;;;;;;15.69;76.45;100673.47;5129599;28;20074;-69
2023/08/07 11:33:15;;;;;;;10.20;5.10;;;;;;;15.76;75.50;100680.00;5129408;28;20131;-69
2023/08/07 11:36:18;;;;;;;9.13;2.85;;;;;;;15.77;73.48;100676.41;5129609;28;20068;-69
2023/08/07 11:39:24;;;;;;;8.55;2.35;;;;;;;15.90;75.02;100671.09;5128920;27;20454;-69
2023/08/07 11:42:28;;;;;;;6.97;2.75;;;;;;;15.94;72.31;100674.34;5127810;27;20050;-69
2023/08/07 11:45:37;;;;;;;12.32;2.60;;;;;;;15.92;71.91;100674.47;5128603;27;20119;-69
2023/08/07 11:48:42;;;;;;;5.90;2.58;;;;;;;16.02;71.65;100672.84;5125624;28;20038;-70
2023/08/07 11:51:46;;;;;;;7.30;3.00;;;;;;;16.02;72.07;100675.50;5126891;27;20427;-71
2023/08/07 11:54:49;;;;;;;9.00;3.13;;;;;;;16.05;68.80;100674.44;5108209;28;20117;-78
2023/08/07 11:57:54;;;;;;;4.88;2.00;;;;;;;15.94;69.86;100675.19;5107034;28;20051;-72
2023/08/07 12:00:56;;;;;;;5.97;2.47;;;;;;;15.97;70.35;100671.50;5094817;28;20050;-72
2023/08/07 12:04:06;;;;;;;6.68;2.72;;;;;;;16.05;70.11;100674.44;5094820;28;20055;-73
2023/08/07 12:07:10;;;;;;;11.05;2.83;;;;;;;16.07;70.50;100677.78;5093678;28;20072;-71
2023/08/07 12:10:14;;;;;;;6.57;2.38;;;;;;;16.22;70.92;100670.56;5094851;28;20134;-79
2023/08/07 12:13:21;;;;;;;8.73;2.20;;;;;;;16.17;68.23;100683.22;5094715;28;20047;-71
2023/08/07 12:16:24;;;;;;;6.97;2.53;;;;;;;16.06;69.42;100681.38;5094572;28;20042;-71
2023/08/07 12:19:43;;;;;;;4.55;2.05;;;;;;;16.16;69.72;100676.28;5094627;28;20043;-70
2023/08/07 12:22:47;;;;;;;7.05;1.65;;;;;;;16.09;67.81;100670.59;5093629;28;20051;-71
2023/08/07 12:25:52;;;;;;;8.60;2.72;;;;;;;16.17;68.71;100670.03;5094552;28;20097;-71
2023/08/07 12:28:55;;;;;;;6.68;2.97;;;;;;;16.13;67.28;100668.59;5094315;28;20039;-71
2023/08/07 12:32:00;;;;;;;6.70;2.00;;;;;;;16.24;67.31;100665.97;5094698;28;20047;-71
2023/08/07 12:35:07;;;;;;;6.70;2.65;;;;;;;16.46;67.39;100671.38;5094440;28;20654;-70
2023/08/07 12:38:11;;;;;;;6.47;2.28;;;;;;;16.70;67.17;100668.69;5092907;28;20082;-71
2023/08/07 12:41:14;;;;;;;6.60;2.85;;;;;;;16.80;66.65;100655.66;5093262;28;20474;-70
2023/08/07 12:44:17;;;;;;;7.50;2.08;;;;;;;16.92;65.36;100659.16;5092228;28;20545;-70
2023/08/07 12:47:20;;;;;;;6.72;1.98;;;;;;;17.09;65.50;100656.03;5093738;28;20092;-71
2023/08/07 12:50:24;;;;;;;5.57;1.67;;;;;;;17.29;65.09;100658.94;5093138;28;20070;-71
2023/08/07 12:53:29;;;;;;;7.15;3.25;;;;;;;17.46;62.91;100657.63;5093195;28;20042;-70
2023/08/07 12:56:32;;;;;;;12.38;6.20;;;;;;;17.72;62.74;100643.16;5116067;27;20101;-70
2023/08/07 12:59:36;;;;;;;8.48;3.75;;;;;;;17.98;63.94;100648.19;5093038;28;20113;-71
2023/08/07 13:02:46;;;;;;;5.03;2.17;;;;;;;18.08;60.74;100636.72;5093159;28;20089;-70
2023/08/07 13:05:49;;;;;;;6.07;2.47;;;;;;;18.31;60.22;100641.91;5092917;28;20117;-71
2023/08/07 13:08:53;;;;;;;8.73;3.92;;;;;;;18.39;58.01;100628.06;5093845;28;20062;-71
2023/08/07 13:11:56;;;;;;;8.55;5.43;;;;;;;18.35;58.32;100630.97;5092944;28;20051;-70
2023/08/07 13:15:00;;;;;;;7.50;2.67;;;;;;;18.40;58.15;100642.97;5093709;28;20135;-71
2023/08/07 13:18:04;;;;;;;5.28;2.20;;;;;;;18.36;58.73;100640.56;5093840;28;20491;-71
2023/08/07 13:21:07;;;;;;;4.93;1.73;;;;;;;18.56;59.28;100640.72;5093994;28;20192;-71
2023/08/07 13:24:11;;;;;;;4.90;2.10;;;;;;;18.85;57.47;100616.25;5111011;27;20098;-71
2023/08/07 13:27:14;;;;;;;4.80;2.35;;;;;;;19.31;58.03;100623.72;5086513;28;20039;-71
2023/08/07 13:30:18;;;;;;;9.05;2.25;;;;;;;19.61;54.43;100625.47;5093426;28;20104;-71
2023/08/07 13:33:22;;;;;;;6.30;1.90;;;;;;;19.87;54.42;100625.81;5093409;28;20096;-71
2023/08/07 13:36:25;;;;;;;6.55;2.38;;;;;;;19.95;52.93;100625.16;5093168;28;20043;-71
2023/08/07 13:39:28;;;;;;;3.67;1.42;;;;;;;20.09;51.59;100624.72;5093414;28;20138;-71
2023/08/07 13:42:33;;;;;;;4.47;1.65;;;;;;;19.92;51.23;100638.69;5093203;28;20504;-71
2023/08/07 13:45:37;;;;;;;6.53;2.30;;;;;;;19.83;51.90;100628.91;5093172;28;20047;-72
2023/08/07 13:48:41;;;;;;;7.15;2.28;;;;;;;19.93;49.61;100638.53;5093078;28;20198;-72
2023/08/07 13:51:44;;;;;;;5.68;2.08;;;;;;;19.93;50.14;100632.41;5093035;28;20047;-72
2023/08/07 13:54:48;;;;;;;4.43;1.75;;;;;;;20.18;49.26;100623.91;5093084;28;20610;-72
2023/08/07 13:57:51;;;;;;;6.60;1.92;;;;;;;20.53;46.82;100633.13;5092854;28;20149;-73
2023/08/07 14:00:55;;;;;;;4.55;2.38;;;;;;;20.55;46.56;100630.31;5092932;28;20148;-72
2023/08/07 14:03:58;;;;;;;6.85;2.90;;;;;;;20.83;46.04;100626.75;5092850;28;20039;-72
2023/08/07 14:11:20;;;;;;;11.82;6.22;;;;;;;22.13;42.77;100631.16;5092823;28;20046;-73
2023/08/07 14:14:24;;;;;;;4.22;1.70;;;;;;;22.75;46.06;100618.72;5090599;28;20585;-72
2023/08/07 14:17:27;;;;;;;6.65;2.22;;;;;;;23.33;39.82;100636.72;5090622;28;20081;-72
2023/08/07 14:20:30;;;;;;;6.82;2.13;;;;;;;23.36;43.29;100633.72;5091308;28;20123;-73
2023/08/07 14:23:34;;;;;;;5.28;1.98;;;;;;;24.48;37.52;100629.81;5092401;28;20039;-73
2023/08/07 14:26:37;;;;;;;6.10;2.05;;;;;;;25.21;34.94;100636.88;5092201;28;20124;-73
2023/08/07 14:29:41;;;;;;;7.38;2.10;;;;;;;24.13;36.04;100646.97;5090697;28;20047;-73
2023/08/07 14:32:46;;;;;;;5.57;1.92;;;;;;;23.05;37.65;100646.72;5091796;28;20050;-72
2023/08/07 14:35:50;;;;;;;4.63;1.95;;;;;;;22.11;38.86;100647.28;5092681;28;20097;-73
2023/08/07 14:38:53;;;;;;;4.38;2.05;;;;;;;21.83;40.50;100655.34;5092401;28;20461;-73
2023/08/07 14:41:57;;;;;;;8.73;2.42;;;;;;;21.70;41.15;100662.03;5091619;28;20094;-73
2023/08/07 14:45:00;;;;;;;6.60;2.33;;;;;;;21.58;42.36;100656.06;5089597;28;20038;-73
2023/08/07 14:48:03;;;;;;;8.65;2.10;;;;;;;21.30;43.12;100668.47;5092206;28;20043;-68
2023/08/07 14:51:07;;;;;;;5.03;2.05;;;;;;;22.28;50.14;100658.97;5092226;28;20050;-68
2023/08/07 14:54:10;;;;;;;8.23;1.70;;;;;;;23.62;42.15;100651.50;5092141;28;20142;-68
2023/08/07 14:57:13;;;;;;;8.23;2.20;;;;;;;24.45;38.78;100646.19;5092165;28;20051;-79
2023/08/07 15:00:18;;;;;;;5.85;2.13;;;;;;;26.40;37.08;100642.88;5091474;28;20058;-75
2023/08/07 15:03:21;;;;;;;5.05;1.98;;;;;;;27.08;34.13;100639.19;5091825;28;20083;-75
2023/08/07 15:06:25;;;;;;;6.28;2.63;;;;;;;28.52;33.04;100640.25;5091886;28;20044;-75
2023/08/07 15:09:28;;;;;;;6.63;2.05;;;;;;;28.74;30.28;100642.88;5090710;28;20097;-75
2023/08/07 15:12:31;;;;;;;4.82;1.80;;;;;;;27.78;30.38;100648.59;5090307;28;20463;-75
2023/08/07 15:15:35;;;;;;;3.13;1.65;;;;;;;26.81;31.85;100647.91;5091835;28;20585;-72